»·PEaware :: WAT169 KSNA-KLAS

WAT169 :: KSNA-KLAS

FLIGHT INFORMATION

Flight Status: Arrived
Operator:
Walker Air Transport
More flights by this operator :: More flights under this callsign
Pilot: Marty P. (27464)
Aircraft: BOEING 737-800
(B738)
More flights by this aircraft type
Origin: KSNA John Wayne-Orange Co
United States
Destination: KLAS McCarran Intl
United States
More flights between these airports :: More routes between these airports
Route: +FINZZ3 MISEN KEPEC6
File this flight plan on PilotEdge
Remarks:
Altitude:
(Current/Filed)
27,000ft
Speed:
(Current/Filed)
480kts
Departed: 27-Oct-20 06:30 PM
Arrived: 27-Oct-20 07:18 PM
Distance/Time
Traveled:
197nm/0:47
Distance/Time
To Go:
Arrived

Flight Plot

Page will automatically refresh every two minutes.

Flight plan parsing failed; only flown route is shown


Map Options




Map Legend


Flown Route
Filed Route
Departure Airport
Arrival Airport
Navaid (VOR, NDB)
Fix

Horizontal Profiles

Position Reports

Time Latitude Longitude Heading Altitude Ground
Speed
27-Oct-20 18:05 33.675005 -117.865072 118 66ft 0kts
27-Oct-20 18:06 33.675005 -117.865072 118 66ft 0kts
27-Oct-20 18:07 33.675005 -117.865072 118 66ft 0kts
27-Oct-20 18:08 33.675005 -117.865072 118 66ft 0kts
27-Oct-20 18:09 33.675005 -117.865072 118 66ft 0kts
27-Oct-20 18:10 33.675005 -117.865073 118 66ft 0kts
27-Oct-20 18:11 33.675005 -117.865073 118 66ft 0kts
27-Oct-20 18:12 33.675039 -117.865149 117 66ft 2kts
27-Oct-20 18:13 33.675122 -117.865751 60 66ft 2kts
27-Oct-20 18:14 33.674923 -117.865964 27 66ft 0kts
27-Oct-20 18:15 33.674923 -117.865964 27 66ft 0kts
27-Oct-20 18:16 33.674923 -117.865964 27 66ft 0kts
27-Oct-20 18:17 33.674923 -117.865963 27 66ft 0kts
27-Oct-20 18:18 33.674923 -117.865963 27 66ft 0kts
27-Oct-20 18:19 33.674923 -117.865963 27 66ft 0kts
27-Oct-20 18:20 33.674923 -117.865963 27 66ft 0kts
27-Oct-20 18:21 33.674923 -117.865963 27 66ft 0kts
27-Oct-20 18:22 33.674923 -117.865963 27 66ft 0kts
27-Oct-20 18:23 33.674923 -117.865963 27 66ft 0kts
27-Oct-20 18:24 33.674923 -117.865963 27 66ft 0kts
27-Oct-20 18:26 33.674923 -117.865963 27 66ft 0kts
27-Oct-20 18:27 33.676620 -117.864881 27 66ft 21kts
27-Oct-20 18:28 33.680620 -117.863034 301 66ft 0kts
27-Oct-20 18:29 33.681215 -117.864343 298 66ft 11kts
27-Oct-20 18:30 33.674720 -117.869455 205 67ft 128kts
27-Oct-20 18:31 33.629231 -117.891871 187 1859ft 219kts
27-Oct-20 18:32 33.563939 -117.910383 212 4860ft 259kts
27-Oct-20 18:33 33.512637 -117.972620 246 6629ft 266kts
27-Oct-20 18:34 33.521483 -118.055250 313 8590ft 269kts
27-Oct-20 18:35 33.580099 -118.103523 350 11904ft 282kts
27-Oct-20 18:36 33.662002 -118.088601 22 14551ft 318kts
27-Oct-20 18:37 33.742374 -118.040693 20 17075ft 343kts
27-Oct-20 18:38 33.826984 -117.991253 20 20020ft 345kts
27-Oct-20 18:39 33.912407 -117.935414 28 22297ft 361kts
27-Oct-20 18:39 33.980997 -117.875853 30 24027ft 371kts
27-Oct-20 18:41 34.072782 -117.788077 37 27061ft 359kts
27-Oct-20 18:41 34.133109 -117.710374 43 27079ft 404kts
27-Oct-20 18:43 34.221716 -117.581211 45 27141ft 447kts
27-Oct-20 18:43 34.288269 -117.482558 45 27154ft 462kts
27-Oct-20 18:45 34.383425 -117.340142 45 27156ft 467kts
27-Oct-20 18:45 34.451341 -117.238108 45 27155ft 466kts
27-Oct-20 18:46 34.532525 -117.116083 45 27155ft 465kts
27-Oct-20 18:47 34.614615 -116.995569 44 27176ft 463kts
27-Oct-20 18:48 34.696893 -116.875718 44 27041ft 456kts
27-Oct-20 18:49 34.771968 -116.765777 43 26405ft 412kts
27-Oct-20 18:50 34.846627 -116.659101 39 25241ft 410kts
27-Oct-20 18:51 34.933352 -116.568480 33 24384ft 428kts
27-Oct-20 18:52 35.028870 -116.475793 33 24163ft 445kts
27-Oct-20 18:53 35.122751 -116.377947 39 24166ft 445kts
27-Oct-20 18:54 35.206230 -116.273620 39 22522ft 400kts
27-Oct-20 18:55 35.281761 -116.178985 39 20532ft 388kts
27-Oct-20 18:56 35.355476 -116.086287 39 18518ft 370kts
27-Oct-20 18:57 35.427062 -115.996024 40 16890ft 366kts
27-Oct-20 18:58 35.494465 -115.910718 40 15521ft 349kts
27-Oct-20 18:59 35.562392 -115.824615 41 14484ft 348kts
27-Oct-20 19:00 35.624556 -115.745357 41 13477ft 306kts
27-Oct-20 19:01 35.685208 -115.668066 42 13029ft 313kts
27-Oct-20 19:02 35.748416 -115.594857 28 13035ft 310kts
27-Oct-20 19:03 35.830736 -115.570634 3 13038ft 310kts
27-Oct-20 19:04 35.916022 -115.566698 4 13013ft 290kts
27-Oct-20 19:05 35.981198 -115.528141 50 11846ft 272kts
27-Oct-20 19:06 36.009757 -115.442838 62 11005ft 247kts
27-Oct-20 19:07 36.029472 -115.362032 79 10976ft 257kts
27-Oct-20 19:08 36.023671 -115.271935 88 9781ft 262kts
27-Oct-20 19:09 36.017178 -115.182656 88 9017ft 259kts
27-Oct-20 19:10 36.011193 -115.094676 89 7777ft 242kts
27-Oct-20 19:11 36.006395 -115.015397 88 6121ft 226kts
27-Oct-20 19:12 36.015759 -114.948642 18 5045ft 177kts
27-Oct-20 19:13 36.062929 -114.950494 329 5031ft 175kts
27-Oct-20 19:14 36.073647 -115.010219 274 3946ft 178kts
27-Oct-20 19:15 36.073672 -115.064519 273 3063ft 156kts
27-Oct-20 19:16 36.073649 -115.119871 271 2197ft 160kts
27-Oct-20 19:17 36.074674 -115.145795 300 2103ft 14kts
27-Oct-20 19:18 36.078953 -115.147323 338 2101ft 17kts

Navigation Log

Ident Type
Flight plan parsing failed, navigation log unavailable